<?xml version="1.0" encoding="UTF-8" standalone="no" ?>
<gpx xmlns="http://www.topografix.com/GPX/1/1" xmlns:xsi="http://www.w3.org/2001/XMLSchema-instance" xsi:schemaLocation="http://www.topografix.com/GPX/1/1 http://www.topografix.com/GPX/1/1/gpx.xsd" version="1.1" creator="VisuGPX - https://www.visugpx.com">
  <metadata>
    <name>Flers 37km</name>
  </metadata>
  <trk>
    <name><![CDATA[Flers 37km_1]]></name>
    <trkseg>
      <trkpt lat="48.64917" lon="-0.53021">
        <ele>204</ele>
        <time>1989-12-31T00:00:00Z</time>
      </trkpt>
      <trkpt lat="48.64802" lon="-0.52792">
        <ele>203.6</ele>
        <time>1989-12-31T00:00:39Z</time>
      </trkpt>
      <trkpt lat="48.6477" lon="-0.5274">
        <ele>205.6</ele>
        <time>1989-12-31T00:00:49Z</time>
      </trkpt>
      <trkpt lat="48.64745" lon="-0.52647">
        <ele>209.9</ele>
        <time>1989-12-31T00:01:03Z</time>
      </trkpt>
      <trkpt lat="48.64774" lon="-0.52587">
        <ele>211.9</ele>
        <time>1989-12-31T00:01:13Z</time>
      </trkpt>
      <trkpt lat="48.64793" lon="-0.52493">
        <ele>212.6</ele>
        <time>1989-12-31T00:01:26Z</time>
      </trkpt>
      <trkpt lat="48.64854" lon="-0.52504">
        <ele>210.9</ele>
        <time>1989-12-31T00:01:39Z</time>
      </trkpt>
      <trkpt lat="48.64899" lon="-0.52293">
        <ele>221.4</ele>
        <time>1989-12-31T00:02:09Z</time>
      </trkpt>
      <trkpt lat="48.64664" lon="-0.52186">
        <ele>227.5</ele>
        <time>1989-12-31T00:03:00Z</time>
      </trkpt>
      <trkpt lat="48.64441" lon="-0.52192">
        <ele>236.3</ele>
        <time>1989-12-31T00:03:47Z</time>
      </trkpt>
      <trkpt lat="48.64646" lon="-0.51885">
        <ele>239.6</ele>
        <time>1989-12-31T00:04:46Z</time>
      </trkpt>
      <trkpt lat="48.64605" lon="-0.51853">
        <ele>245.3</ele>
        <time>1989-12-31T00:04:56Z</time>
      </trkpt>
      <trkpt lat="48.64664" lon="-0.51742">
        <ele>245.4</ele>
        <time>1989-12-31T00:05:16Z</time>
      </trkpt>
      <trkpt lat="48.64684" lon="-0.51742">
        <ele>242.8</ele>
        <time>1989-12-31T00:05:20Z</time>
      </trkpt>
      <trkpt lat="48.64714" lon="-0.51323">
        <ele>257.8</ele>
        <time>1989-12-31T00:06:17Z</time>
      </trkpt>
      <trkpt lat="48.64741" lon="-0.51237">
        <ele>261.5</ele>
        <time>1989-12-31T00:06:31Z</time>
      </trkpt>
      <trkpt lat="48.64808" lon="-0.51065">
        <ele>267.1</ele>
        <time>1989-12-31T00:06:58Z</time>
      </trkpt>
      <trkpt lat="48.64765" lon="-0.51029">
        <ele>267</ele>
        <time>1989-12-31T00:07:08Z</time>
      </trkpt>
      <trkpt lat="48.64411" lon="-0.5144">
        <ele>276.2</ele>
        <time>1989-12-31T00:08:41Z</time>
      </trkpt>
      <trkpt lat="48.6454" lon="-0.51406">
        <ele>264.7</ele>
        <time>1989-12-31T00:09:08Z</time>
      </trkpt>
      <trkpt lat="48.64597" lon="-0.51466">
        <ele>259.9</ele>
        <time>1989-12-31T00:09:22Z</time>
      </trkpt>
      <trkpt lat="48.64479" lon="-0.51546">
        <ele>276.5</ele>
        <time>1989-12-31T00:09:49Z</time>
      </trkpt>
      <trkpt lat="48.64468" lon="-0.51588">
        <ele>281.3</ele>
        <time>1989-12-31T00:09:55Z</time>
      </trkpt>
      <trkpt lat="48.64378" lon="-0.51458">
        <ele>279.6</ele>
        <time>1989-12-31T00:10:21Z</time>
      </trkpt>
      <trkpt lat="48.64245" lon="-0.51265">
        <ele>282.4</ele>
        <time>1989-12-31T00:10:59Z</time>
      </trkpt>
      <trkpt lat="48.64166" lon="-0.51117">
        <ele>284.3</ele>
        <time>1989-12-31T00:11:26Z</time>
      </trkpt>
      <trkpt lat="48.63979" lon="-0.50966">
        <ele>287.9</ele>
        <time>1989-12-31T00:12:10Z</time>
      </trkpt>
      <trkpt lat="48.63967" lon="-0.51">
        <ele>290.2</ele>
        <time>1989-12-31T00:12:15Z</time>
      </trkpt>
      <trkpt lat="48.64015" lon="-0.51172">
        <ele>293.4</ele>
        <time>1989-12-31T00:12:41Z</time>
      </trkpt>
      <trkpt lat="48.64033" lon="-0.51182">
        <ele>293.8</ele>
        <time>1989-12-31T00:12:44Z</time>
      </trkpt>
      <trkpt lat="48.64105" lon="-0.51252">
        <ele>292.1</ele>
        <time>1989-12-31T00:13:02Z</time>
      </trkpt>
      <trkpt lat="48.64211" lon="-0.51502">
        <ele>302.2</ele>
        <time>1989-12-31T00:13:43Z</time>
      </trkpt>
      <trkpt lat="48.64073" lon="-0.51669">
        <ele>300.7</ele>
        <time>1989-12-31T00:14:20Z</time>
      </trkpt>
      <trkpt lat="48.63789" lon="-0.51271">
        <ele>305.7</ele>
        <time>1989-12-31T00:15:40Z</time>
      </trkpt>
      <trkpt lat="48.63779" lon="-0.51364">
        <ele>294.9</ele>
        <time>1989-12-31T00:15:53Z</time>
      </trkpt>
      <trkpt lat="48.63743" lon="-0.51492">
        <ele>282.3</ele>
        <time>1989-12-31T00:16:12Z</time>
      </trkpt>
      <trkpt lat="48.63756" lon="-0.51513">
        <ele>281.9</ele>
        <time>1989-12-31T00:16:16Z</time>
      </trkpt>
      <trkpt lat="48.63661" lon="-0.51614">
        <ele>270.4</ele>
        <time>1989-12-31T00:16:40Z</time>
      </trkpt>
      <trkpt lat="48.63644" lon="-0.51669">
        <ele>265.2</ele>
        <time>1989-12-31T00:16:48Z</time>
      </trkpt>
      <trkpt lat="48.63555" lon="-0.51775">
        <ele>252.2</ele>
        <time>1989-12-31T00:17:12Z</time>
      </trkpt>
      <trkpt lat="48.63513" lon="-0.51794">
        <ele>248.1</ele>
        <time>1989-12-31T00:17:21Z</time>
      </trkpt>
      <trkpt lat="48.63477" lon="-0.51809">
        <ele>247</ele>
        <time>1989-12-31T00:17:29Z</time>
      </trkpt>
      <trkpt lat="48.63422" lon="-0.51916">
        <ele>249.6</ele>
        <time>1989-12-31T00:17:47Z</time>
      </trkpt>
      <trkpt lat="48.63282" lon="-0.52038">
        <ele>253.5</ele>
        <time>1989-12-31T00:18:21Z</time>
      </trkpt>
      <trkpt lat="48.63222" lon="-0.51929">
        <ele>256.6</ele>
        <time>1989-12-31T00:18:40Z</time>
      </trkpt>
      <trkpt lat="48.63057" lon="-0.51528">
        <ele>265</ele>
        <time>1989-12-31T00:19:45Z</time>
      </trkpt>
      <trkpt lat="48.6301" lon="-0.5157">
        <ele>262.5</ele>
        <time>1989-12-31T00:19:56Z</time>
      </trkpt>
      <trkpt lat="48.63026" lon="-0.51146">
        <ele>267.9</ele>
        <time>1989-12-31T00:20:54Z</time>
      </trkpt>
      <trkpt lat="48.63012" lon="-0.51031">
        <ele>267.7</ele>
        <time>1989-12-31T00:21:10Z</time>
      </trkpt>
      <trkpt lat="48.62996" lon="-0.51031">
        <ele>267</ele>
        <time>1989-12-31T00:21:14Z</time>
      </trkpt>
      <trkpt lat="48.62888" lon="-0.51099">
        <ele>267.5</ele>
        <time>1989-12-31T00:21:38Z</time>
      </trkpt>
      <trkpt lat="48.62773" lon="-0.512">
        <ele>264.8</ele>
        <time>1989-12-31T00:22:06Z</time>
      </trkpt>
      <trkpt lat="48.62646" lon="-0.51419">
        <ele>259.9</ele>
        <time>1989-12-31T00:22:46Z</time>
      </trkpt>
      <trkpt lat="48.6263" lon="-0.5142">
        <ele>259.9</ele>
        <time>1989-12-31T00:22:49Z</time>
      </trkpt>
      <trkpt lat="48.62607" lon="-0.51504">
        <ele>258</ele>
        <time>1989-12-31T00:23:01Z</time>
      </trkpt>
      <trkpt lat="48.62593" lon="-0.51502">
        <ele>258</ele>
        <time>1989-12-31T00:23:04Z</time>
      </trkpt>
      <trkpt lat="48.6258" lon="-0.51506">
        <ele>258.1</ele>
        <time>1989-12-31T00:23:07Z</time>
      </trkpt>
      <trkpt lat="48.62514" lon="-0.51604">
        <ele>256.3</ele>
        <time>1989-12-31T00:23:26Z</time>
      </trkpt>
      <trkpt lat="48.62502" lon="-0.51613">
        <ele>256</ele>
        <time>1989-12-31T00:23:29Z</time>
      </trkpt>
      <trkpt lat="48.62452" lon="-0.51645">
        <ele>255.8</ele>
        <time>1989-12-31T00:23:40Z</time>
      </trkpt>
      <trkpt lat="48.62397" lon="-0.51707">
        <ele>253.3</ele>
        <time>1989-12-31T00:23:55Z</time>
      </trkpt>
      <trkpt lat="48.62251" lon="-0.51715">
        <ele>257.2</ele>
        <time>1989-12-31T00:24:25Z</time>
      </trkpt>
      <trkpt lat="48.62254" lon="-0.51639">
        <ele>257.9</ele>
        <time>1989-12-31T00:24:35Z</time>
      </trkpt>
      <trkpt lat="48.62219" lon="-0.51635">
        <ele>261.3</ele>
        <time>1989-12-31T00:24:43Z</time>
      </trkpt>
      <trkpt lat="48.62116" lon="-0.51658">
        <ele>271.7</ele>
        <time>1989-12-31T00:25:04Z</time>
      </trkpt>
      <trkpt lat="48.62007" lon="-0.51691">
        <ele>270.3</ele>
        <time>1989-12-31T00:25:27Z</time>
      </trkpt>
      <trkpt lat="48.61972" lon="-0.51805">
        <ele>270</ele>
        <time>1989-12-31T00:25:44Z</time>
      </trkpt>
      <trkpt lat="48.61897" lon="-0.52011">
        <ele>272.6</ele>
        <time>1989-12-31T00:26:17Z</time>
      </trkpt>
      <trkpt lat="48.61868" lon="-0.52335">
        <ele>268.7</ele>
        <time>1989-12-31T00:27:02Z</time>
      </trkpt>
      <trkpt lat="48.6185" lon="-0.52508">
        <ele>264.8</ele>
        <time>1989-12-31T00:27:26Z</time>
      </trkpt>
      <trkpt lat="48.61844" lon="-0.52757">
        <ele>253</ele>
        <time>1989-12-31T00:28:00Z</time>
      </trkpt>
      <trkpt lat="48.61803" lon="-0.52857">
        <ele>247.6</ele>
        <time>1989-12-31T00:28:16Z</time>
      </trkpt>
      <trkpt lat="48.61747" lon="-0.52913">
        <ele>243.5</ele>
        <time>1989-12-31T00:28:30Z</time>
      </trkpt>
      <trkpt lat="48.61796" lon="-0.52972">
        <ele>234</ele>
        <time>1989-12-31T00:28:43Z</time>
      </trkpt>
      <trkpt lat="48.6194" lon="-0.53414">
        <ele>260.1</ele>
        <time>1989-12-31T00:29:50Z</time>
      </trkpt>
      <trkpt lat="48.61973" lon="-0.53287">
        <ele>258</ele>
        <time>1989-12-31T00:30:09Z</time>
      </trkpt>
      <trkpt lat="48.62109" lon="-0.5344">
        <ele>247.2</ele>
        <time>1989-12-31T00:30:44Z</time>
      </trkpt>
      <trkpt lat="48.62169" lon="-0.53422">
        <ele>245.2</ele>
        <time>1989-12-31T00:30:57Z</time>
      </trkpt>
      <trkpt lat="48.62201" lon="-0.53341">
        <ele>246.6</ele>
        <time>1989-12-31T00:31:10Z</time>
      </trkpt>
      <trkpt lat="48.62271" lon="-0.53328">
        <ele>241.6</ele>
        <time>1989-12-31T00:31:24Z</time>
      </trkpt>
      <trkpt lat="48.62355" lon="-0.53216">
        <ele>243.8</ele>
        <time>1989-12-31T00:31:48Z</time>
      </trkpt>
      <trkpt lat="48.62427" lon="-0.53255">
        <ele>246.5</ele>
        <time>1989-12-31T00:32:04Z</time>
      </trkpt>
      <trkpt lat="48.62469" lon="-0.53198">
        <ele>246.1</ele>
        <time>1989-12-31T00:32:15Z</time>
      </trkpt>
      <trkpt lat="48.62445" lon="-0.53042">
        <ele>245</ele>
        <time>1989-12-31T00:32:37Z</time>
      </trkpt>
      <trkpt lat="48.62468" lon="-0.53045">
        <ele>244.5</ele>
        <time>1989-12-31T00:32:42Z</time>
      </trkpt>
      <trkpt lat="48.62525" lon="-0.53093">
        <ele>242.1</ele>
        <time>1989-12-31T00:32:55Z</time>
      </trkpt>
      <trkpt lat="48.62548" lon="-0.53205">
        <ele>240.3</ele>
        <time>1989-12-31T00:33:11Z</time>
      </trkpt>
      <trkpt lat="48.62553" lon="-0.53355">
        <ele>239.1</ele>
        <time>1989-12-31T00:33:32Z</time>
      </trkpt>
      <trkpt lat="48.62623" lon="-0.53515">
        <ele>239.6</ele>
        <time>1989-12-31T00:33:58Z</time>
      </trkpt>
      <trkpt lat="48.62623" lon="-0.53663">
        <ele>234.3</ele>
        <time>1989-12-31T00:34:19Z</time>
      </trkpt>
      <trkpt lat="48.62665" lon="-0.53774">
        <ele>233</ele>
        <time>1989-12-31T00:34:36Z</time>
      </trkpt>
      <trkpt lat="48.62818" lon="-0.53991">
        <ele>226.2</ele>
        <time>1989-12-31T00:35:20Z</time>
      </trkpt>
      <trkpt lat="48.62862" lon="-0.54214">
        <ele>226</ele>
        <time>1989-12-31T00:35:52Z</time>
      </trkpt>
      <trkpt lat="48.62922" lon="-0.54238">
        <ele>227</ele>
        <time>1989-12-31T00:36:04Z</time>
      </trkpt>
      <trkpt lat="48.62938" lon="-0.54487">
        <ele>226</ele>
        <time>1989-12-31T00:36:39Z</time>
      </trkpt>
      <trkpt lat="48.62911" lon="-0.54593">
        <ele>225.1</ele>
        <time>1989-12-31T00:36:54Z</time>
      </trkpt>
      <trkpt lat="48.62806" lon="-0.54561">
        <ele>224</ele>
        <time>1989-12-31T00:37:17Z</time>
      </trkpt>
      <trkpt lat="48.6279" lon="-0.546">
        <ele>223.4</ele>
        <time>1989-12-31T00:37:23Z</time>
      </trkpt>
      <trkpt lat="48.62787" lon="-0.55104">
        <ele>227</ele>
        <time>1989-12-31T00:38:32Z</time>
      </trkpt>
      <trkpt lat="48.62668" lon="-0.55229">
        <ele>231</ele>
        <time>1989-12-31T00:39:02Z</time>
      </trkpt>
      <trkpt lat="48.62663" lon="-0.55513">
        <ele>232.1</ele>
        <time>1989-12-31T00:39:41Z</time>
      </trkpt>
      <trkpt lat="48.62625" lon="-0.55603">
        <ele>231.6</ele>
        <time>1989-12-31T00:39:56Z</time>
      </trkpt>
      <trkpt lat="48.62676" lon="-0.55845">
        <ele>227.5</ele>
        <time>1989-12-31T00:40:31Z</time>
      </trkpt>
      <trkpt lat="48.62606" lon="-0.56091">
        <ele>229.3</ele>
        <time>1989-12-31T00:41:07Z</time>
      </trkpt>
      <trkpt lat="48.6262" lon="-0.56164">
        <ele>232.8</ele>
        <time>1989-12-31T00:41:18Z</time>
      </trkpt>
      <trkpt lat="48.6255" lon="-0.56484">
        <ele>230.2</ele>
        <time>1989-12-31T00:42:04Z</time>
      </trkpt>
      <trkpt lat="48.62558" lon="-0.56656">
        <ele>225</ele>
        <time>1989-12-31T00:42:28Z</time>
      </trkpt>
      <trkpt lat="48.62617" lon="-0.56761">
        <ele>222.9</ele>
        <time>1989-12-31T00:42:46Z</time>
      </trkpt>
      <trkpt lat="48.62674" lon="-0.56855">
        <ele>220.8</ele>
        <time>1989-12-31T00:43:04Z</time>
      </trkpt>
      <trkpt lat="48.62644" lon="-0.56917">
        <ele>221.8</ele>
        <time>1989-12-31T00:43:14Z</time>
      </trkpt>
      <trkpt lat="48.62919" lon="-0.57354">
        <ele>215.9</ele>
        <time>1989-12-31T00:44:37Z</time>
      </trkpt>
      <trkpt lat="48.62844" lon="-0.57592">
        <ele>204.4</ele>
        <time>1989-12-31T00:45:13Z</time>
      </trkpt>
      <trkpt lat="48.62827" lon="-0.57671">
        <ele>202.2</ele>
        <time>1989-12-31T00:45:25Z</time>
      </trkpt>
      <trkpt lat="48.62862" lon="-0.57717">
        <ele>202.4</ele>
        <time>1989-12-31T00:45:34Z</time>
      </trkpt>
      <trkpt lat="48.62846" lon="-0.5787">
        <ele>206.1</ele>
        <time>1989-12-31T00:45:56Z</time>
      </trkpt>
      <trkpt lat="48.62792" lon="-0.57893">
        <ele>202.3</ele>
        <time>1989-12-31T00:46:07Z</time>
      </trkpt>
      <trkpt lat="48.62749" lon="-0.57866">
        <ele>196.2</ele>
        <time>1989-12-31T00:46:17Z</time>
      </trkpt>
      <trkpt lat="48.6272" lon="-0.57971">
        <ele>194</ele>
        <time>1989-12-31T00:46:33Z</time>
      </trkpt>
      <trkpt lat="48.62674" lon="-0.58232">
        <ele>188.2</ele>
        <time>1989-12-31T00:47:10Z</time>
      </trkpt>
      <trkpt lat="48.62173" lon="-0.5815">
        <ele>198.2</ele>
        <time>1989-12-31T00:48:54Z</time>
      </trkpt>
      <trkpt lat="48.62126" lon="-0.58804">
        <ele>179.5</ele>
        <time>1989-12-31T00:50:24Z</time>
      </trkpt>
      <trkpt lat="48.62101" lon="-0.59167">
        <ele>153.9</ele>
        <time>1989-12-31T00:51:15Z</time>
      </trkpt>
      <trkpt lat="48.62246" lon="-0.59313">
        <ele>159.8</ele>
        <time>1989-12-31T00:51:51Z</time>
      </trkpt>
      <trkpt lat="48.62326" lon="-0.59345">
        <ele>155.5</ele>
        <time>1989-12-31T00:52:08Z</time>
      </trkpt>
      <trkpt lat="48.62343" lon="-0.5938">
        <ele>156.8</ele>
        <time>1989-12-31T00:52:14Z</time>
      </trkpt>
      <trkpt lat="48.62479" lon="-0.59501">
        <ele>159.4</ele>
        <time>1989-12-31T00:52:47Z</time>
      </trkpt>
      <trkpt lat="48.62683" lon="-0.59639">
        <ele>154</ele>
        <time>1989-12-31T00:53:33Z</time>
      </trkpt>
      <trkpt lat="48.62843" lon="-0.59751">
        <ele>167.3</ele>
        <time>1989-12-31T00:54:10Z</time>
      </trkpt>
      <trkpt lat="48.62964" lon="-0.59777">
        <ele>172.1</ele>
        <time>1989-12-31T00:54:35Z</time>
      </trkpt>
      <trkpt lat="48.6318" lon="-0.59666">
        <ele>168.9</ele>
        <time>1989-12-31T00:55:22Z</time>
      </trkpt>
      <trkpt lat="48.63126" lon="-0.59523">
        <ele>169.3</ele>
        <time>1989-12-31T00:55:45Z</time>
      </trkpt>
      <trkpt lat="48.6296" lon="-0.59523">
        <ele>176</ele>
        <time>1989-12-31T00:56:19Z</time>
      </trkpt>
      <trkpt lat="48.62897" lon="-0.59549">
        <ele>168.5</ele>
        <time>1989-12-31T00:56:33Z</time>
      </trkpt>
      <trkpt lat="48.62892" lon="-0.59393">
        <ele>180.1</ele>
        <time>1989-12-31T00:56:54Z</time>
      </trkpt>
      <trkpt lat="48.62924" lon="-0.59302">
        <ele>182.5</ele>
        <time>1989-12-31T00:57:08Z</time>
      </trkpt>
      <trkpt lat="48.63027" lon="-0.59165">
        <ele>190.9</ele>
        <time>1989-12-31T00:57:37Z</time>
      </trkpt>
      <trkpt lat="48.63094" lon="-0.58964">
        <ele>200.3</ele>
        <time>1989-12-31T00:58:08Z</time>
      </trkpt>
      <trkpt lat="48.63157" lon="-0.5873">
        <ele>203</ele>
        <time>1989-12-31T00:58:42Z</time>
      </trkpt>
      <trkpt lat="48.6318" lon="-0.58574">
        <ele>208.5</ele>
        <time>1989-12-31T00:59:04Z</time>
      </trkpt>
      <trkpt lat="48.63165" lon="-0.58522">
        <ele>211.5</ele>
        <time>1989-12-31T00:59:12Z</time>
      </trkpt>
      <trkpt lat="48.63241" lon="-0.58496">
        <ele>211.9</ele>
        <time>1989-12-31T00:59:28Z</time>
      </trkpt>
      <trkpt lat="48.63298" lon="-0.58459">
        <ele>209.4</ele>
        <time>1989-12-31T00:59:41Z</time>
      </trkpt>
      <trkpt lat="48.63312" lon="-0.58405">
        <ele>207.1</ele>
        <time>1989-12-31T00:59:49Z</time>
      </trkpt>
      <trkpt lat="48.63507" lon="-0.58373">
        <ele>186.4</ele>
        <time>1989-12-31T01:00:30Z</time>
      </trkpt>
      <trkpt lat="48.63611" lon="-0.58307">
        <ele>181</ele>
        <time>1989-12-31T01:00:53Z</time>
      </trkpt>
      <trkpt lat="48.63566" lon="-0.58038">
        <ele>179.7</ele>
        <time>1989-12-31T01:01:31Z</time>
      </trkpt>
      <trkpt lat="48.6362" lon="-0.5805">
        <ele>178.2</ele>
        <time>1989-12-31T01:01:43Z</time>
      </trkpt>
      <trkpt lat="48.63763" lon="-0.58237">
        <ele>178.1</ele>
        <time>1989-12-31T01:02:22Z</time>
      </trkpt>
      <trkpt lat="48.63715" lon="-0.57983">
        <ele>180.8</ele>
        <time>1989-12-31T01:02:58Z</time>
      </trkpt>
      <trkpt lat="48.63825" lon="-0.57952">
        <ele>193.9</ele>
        <time>1989-12-31T01:03:21Z</time>
      </trkpt>
      <trkpt lat="48.63986" lon="-0.57854">
        <ele>216.3</ele>
        <time>1989-12-31T01:03:57Z</time>
      </trkpt>
      <trkpt lat="48.64113" lon="-0.57613">
        <ele>208.7</ele>
        <time>1989-12-31T01:04:40Z</time>
      </trkpt>
      <trkpt lat="48.64213" lon="-0.57515">
        <ele>197.6</ele>
        <time>1989-12-31T01:05:04Z</time>
      </trkpt>
      <trkpt lat="48.64205" lon="-0.5741">
        <ele>195</ele>
        <time>1989-12-31T01:05:19Z</time>
      </trkpt>
      <trkpt lat="48.64183" lon="-0.5739">
        <ele>196.9</ele>
        <time>1989-12-31T01:05:24Z</time>
      </trkpt>
      <trkpt lat="48.64237" lon="-0.57191">
        <ele>203.3</ele>
        <time>1989-12-31T01:05:54Z</time>
      </trkpt>
      <trkpt lat="48.64237" lon="-0.57152">
        <ele>203.1</ele>
        <time>1989-12-31T01:05:59Z</time>
      </trkpt>
      <trkpt lat="48.64215" lon="-0.57">
        <ele>205.8</ele>
        <time>1989-12-31T01:06:20Z</time>
      </trkpt>
      <trkpt lat="48.64337" lon="-0.56778">
        <ele>196.3</ele>
        <time>1989-12-31T01:07:00Z</time>
      </trkpt>
      <trkpt lat="48.64453" lon="-0.5652">
        <ele>189.3</ele>
        <time>1989-12-31T01:07:43Z</time>
      </trkpt>
      <trkpt lat="48.64423" lon="-0.56442">
        <ele>188</ele>
        <time>1989-12-31T01:07:55Z</time>
      </trkpt>
      <trkpt lat="48.64547" lon="-0.5654">
        <ele>183.9</ele>
        <time>1989-12-31T01:08:24Z</time>
      </trkpt>
      <trkpt lat="48.6463" lon="-0.56489">
        <ele>183.9</ele>
        <time>1989-12-31T01:08:43Z</time>
      </trkpt>
      <trkpt lat="48.64663" lon="-0.56586">
        <ele>184.6</ele>
        <time>1989-12-31T01:08:58Z</time>
      </trkpt>
      <trkpt lat="48.64733" lon="-0.56606">
        <ele>184.8</ele>
        <time>1989-12-31T01:09:12Z</time>
      </trkpt>
      <trkpt lat="48.6483" lon="-0.56692">
        <ele>186.9</ele>
        <time>1989-12-31T01:09:36Z</time>
      </trkpt>
      <trkpt lat="48.64876" lon="-0.56922">
        <ele>191.7</ele>
        <time>1989-12-31T01:10:09Z</time>
      </trkpt>
      <trkpt lat="48.64961" lon="-0.56898">
        <ele>191.7</ele>
        <time>1989-12-31T01:10:27Z</time>
      </trkpt>
      <trkpt lat="48.65064" lon="-0.5675">
        <ele>194.3</ele>
        <time>1989-12-31T01:10:56Z</time>
      </trkpt>
      <trkpt lat="48.65293" lon="-0.56781">
        <ele>203.1</ele>
        <time>1989-12-31T01:11:44Z</time>
      </trkpt>
      <trkpt lat="48.65349" lon="-0.56824">
        <ele>203.1</ele>
        <time>1989-12-31T01:11:57Z</time>
      </trkpt>
      <trkpt lat="48.65492" lon="-0.56848">
        <ele>197.3</ele>
        <time>1989-12-31T01:12:27Z</time>
      </trkpt>
      <trkpt lat="48.65549" lon="-0.56898">
        <ele>195.5</ele>
        <time>1989-12-31T01:12:40Z</time>
      </trkpt>
      <trkpt lat="48.65613" lon="-0.56914">
        <ele>196</ele>
        <time>1989-12-31T01:12:54Z</time>
      </trkpt>
      <trkpt lat="48.657" lon="-0.57144">
        <ele>201</ele>
        <time>1989-12-31T01:13:30Z</time>
      </trkpt>
      <trkpt lat="48.65909" lon="-0.56906">
        <ele>198.1</ele>
        <time>1989-12-31T01:14:25Z</time>
      </trkpt>
      <trkpt lat="48.66014" lon="-0.56641">
        <ele>198.9</ele>
        <time>1989-12-31T01:15:07Z</time>
      </trkpt>
      <trkpt lat="48.66095" lon="-0.56551">
        <ele>202.7</ele>
        <time>1989-12-31T01:15:28Z</time>
      </trkpt>
      <trkpt lat="48.66138" lon="-0.56684">
        <ele>193.8</ele>
        <time>1989-12-31T01:15:48Z</time>
      </trkpt>
      <trkpt lat="48.66227" lon="-0.5666">
        <ele>191.1</ele>
        <time>1989-12-31T01:16:07Z</time>
      </trkpt>
      <trkpt lat="48.66321" lon="-0.56653">
        <ele>194.8</ele>
        <time>1989-12-31T01:16:26Z</time>
      </trkpt>
      <trkpt lat="48.66424" lon="-0.5661">
        <ele>198.6</ele>
        <time>1989-12-31T01:16:48Z</time>
      </trkpt>
      <trkpt lat="48.66496" lon="-0.5666">
        <ele>204.6</ele>
        <time>1989-12-31T01:17:05Z</time>
      </trkpt>
      <trkpt lat="48.66669" lon="-0.56684">
        <ele>208.2</ele>
        <time>1989-12-31T01:17:41Z</time>
      </trkpt>
      <trkpt lat="48.66709" lon="-0.56672">
        <ele>207.4</ele>
        <time>1989-12-31T01:17:50Z</time>
      </trkpt>
      <trkpt lat="48.66709" lon="-0.56555">
        <ele>209</ele>
        <time>1989-12-31T01:18:06Z</time>
      </trkpt>
      <trkpt lat="48.67009" lon="-0.5668">
        <ele>222</ele>
        <time>1989-12-31T01:19:10Z</time>
      </trkpt>
      <trkpt lat="48.67065" lon="-0.5675">
        <ele>224.7</ele>
        <time>1989-12-31T01:19:25Z</time>
      </trkpt>
      <trkpt lat="48.67284" lon="-0.56774">
        <ele>231.5</ele>
        <time>1989-12-31T01:20:11Z</time>
      </trkpt>
      <trkpt lat="48.67375" lon="-0.56731">
        <ele>236.7</ele>
        <time>1989-12-31T01:20:31Z</time>
      </trkpt>
      <trkpt lat="48.67434" lon="-0.56668">
        <ele>240.6</ele>
        <time>1989-12-31T01:20:46Z</time>
      </trkpt>
      <trkpt lat="48.67952" lon="-0.5693">
        <ele>214.1</ele>
        <time>1989-12-31T01:22:39Z</time>
      </trkpt>
      <trkpt lat="48.68022" lon="-0.56859">
        <ele>204.4</ele>
        <time>1989-12-31T01:22:56Z</time>
      </trkpt>
      <trkpt lat="48.68127" lon="-0.56688">
        <ele>194.6</ele>
        <time>1989-12-31T01:23:28Z</time>
      </trkpt>
      <trkpt lat="48.68129" lon="-0.56653">
        <ele>196.1</ele>
        <time>1989-12-31T01:23:33Z</time>
      </trkpt>
      <trkpt lat="48.68204" lon="-0.56536">
        <ele>200.5</ele>
        <time>1989-12-31T01:23:56Z</time>
      </trkpt>
      <trkpt lat="48.68218" lon="-0.56458">
        <ele>203.8</ele>
        <time>1989-12-31T01:24:07Z</time>
      </trkpt>
      <trkpt lat="48.68223" lon="-0.56391">
        <ele>208</ele>
        <time>1989-12-31T01:24:16Z</time>
      </trkpt>
      <trkpt lat="48.68242" lon="-0.56352">
        <ele>213</ele>
        <time>1989-12-31T01:24:23Z</time>
      </trkpt>
      <trkpt lat="48.68234" lon="-0.56274">
        <ele>218.1</ele>
        <time>1989-12-31T01:24:33Z</time>
      </trkpt>
      <trkpt lat="48.68331" lon="-0.56063">
        <ele>240.4</ele>
        <time>1989-12-31T01:25:09Z</time>
      </trkpt>
      <trkpt lat="48.68407" lon="-0.55962">
        <ele>248.1</ele>
        <time>1989-12-31T01:25:30Z</time>
      </trkpt>
      <trkpt lat="48.68452" lon="-0.55802">
        <ele>256.9</ele>
        <time>1989-12-31T01:25:53Z</time>
      </trkpt>
      <trkpt lat="48.68425" lon="-0.55681">
        <ele>257.2</ele>
        <time>1989-12-31T01:26:11Z</time>
      </trkpt>
      <trkpt lat="48.68336" lon="-0.5542">
        <ele>254.9</ele>
        <time>1989-12-31T01:26:51Z</time>
      </trkpt>
      <trkpt lat="48.68199" lon="-0.55107">
        <ele>244.9</ele>
        <time>1989-12-31T01:27:43Z</time>
      </trkpt>
      <trkpt lat="48.67754" lon="-0.54433">
        <ele>250.4</ele>
        <time>1989-12-31T01:29:53Z</time>
      </trkpt>
      <trkpt lat="48.67323" lon="-0.54519">
        <ele>245.3</ele>
        <time>1989-12-31T01:31:24Z</time>
      </trkpt>
      <trkpt lat="48.67253" lon="-0.54074">
        <ele>244.2</ele>
        <time>1989-12-31T01:32:26Z</time>
      </trkpt>
      <trkpt lat="48.67188" lon="-0.54047">
        <ele>240.5</ele>
        <time>1989-12-31T01:32:40Z</time>
      </trkpt>
      <trkpt lat="48.67016" lon="-0.5402">
        <ele>238.1</ele>
        <time>1989-12-31T01:33:16Z</time>
      </trkpt>
      <trkpt lat="48.66924" lon="-0.53914">
        <ele>236</ele>
        <time>1989-12-31T01:33:40Z</time>
      </trkpt>
      <trkpt lat="48.66892" lon="-0.53973">
        <ele>236.1</ele>
        <time>1989-12-31T01:33:50Z</time>
      </trkpt>
      <trkpt lat="48.66652" lon="-0.53809">
        <ele>216.5</ele>
        <time>1989-12-31T01:34:45Z</time>
      </trkpt>
      <trkpt lat="48.66579" lon="-0.53887">
        <ele>210.7</ele>
        <time>1989-12-31T01:35:04Z</time>
      </trkpt>
      <trkpt lat="48.66533" lon="-0.54299">
        <ele>224.2</ele>
        <time>1989-12-31T01:36:01Z</time>
      </trkpt>
      <trkpt lat="48.66131" lon="-0.5436">
        <ele>199.7</ele>
        <time>1989-12-31T01:37:25Z</time>
      </trkpt>
      <trkpt lat="48.66101" lon="-0.54563">
        <ele>194.5</ele>
        <time>1989-12-31T01:37:53Z</time>
      </trkpt>
      <trkpt lat="48.66048" lon="-0.5468">
        <ele>191.9</ele>
        <time>1989-12-31T01:38:13Z</time>
      </trkpt>
      <trkpt lat="48.66039" lon="-0.54825">
        <ele>193.4</ele>
        <time>1989-12-31T01:38:32Z</time>
      </trkpt>
      <trkpt lat="48.65937" lon="-0.54774">
        <ele>190.9</ele>
        <time>1989-12-31T01:38:55Z</time>
      </trkpt>
      <trkpt lat="48.66004" lon="-0.55125">
        <ele>197.1</ele>
        <time>1989-12-31T01:39:45Z</time>
      </trkpt>
      <trkpt lat="48.66158" lon="-0.55453">
        <ele>204.4</ele>
        <time>1989-12-31T01:40:40Z</time>
      </trkpt>
      <trkpt lat="48.66083" lon="-0.55472">
        <ele>201</ele>
        <time>1989-12-31T01:40:56Z</time>
      </trkpt>
      <trkpt lat="48.65756" lon="-0.55656">
        <ele>193.3</ele>
        <time>1989-12-31T01:42:08Z</time>
      </trkpt>
      <trkpt lat="48.6542" lon="-0.56069">
        <ele>188.9</ele>
        <time>1989-12-31T01:43:38Z</time>
      </trkpt>
      <trkpt lat="48.6495" lon="-0.55859">
        <ele>180.1</ele>
        <time>1989-12-31T01:45:20Z</time>
      </trkpt>
      <trkpt lat="48.64813" lon="-0.55726">
        <ele>180.9</ele>
        <time>1989-12-31T01:45:53Z</time>
      </trkpt>
      <trkpt lat="48.64663" lon="-0.55535">
        <ele>188</ele>
        <time>1989-12-31T01:46:34Z</time>
      </trkpt>
      <trkpt lat="48.6459" lon="-0.54423">
        <ele>189.1</ele>
        <time>1989-12-31T01:49:08Z</time>
      </trkpt>
      <trkpt lat="48.6435" lon="-0.54017">
        <ele>193</ele>
        <time>1989-12-31T01:50:22Z</time>
      </trkpt>
      <trkpt lat="48.6418" lon="-0.53951">
        <ele>207.1</ele>
        <time>1989-12-31T01:50:59Z</time>
      </trkpt>
      <trkpt lat="48.64126" lon="-0.53861">
        <ele>216.3</ele>
        <time>1989-12-31T01:51:15Z</time>
      </trkpt>
      <trkpt lat="48.64266" lon="-0.53158">
        <ele>218.4</ele>
        <time>1989-12-31T01:52:56Z</time>
      </trkpt>
      <trkpt lat="48.64347" lon="-0.5333">
        <ele>207.5</ele>
        <time>1989-12-31T01:53:25Z</time>
      </trkpt>
      <trkpt lat="48.64539" lon="-0.53233">
        <ele>199.6</ele>
        <time>1989-12-31T01:54:07Z</time>
      </trkpt>
      <trkpt lat="48.64711" lon="-0.53428">
        <ele>195</ele>
        <time>1989-12-31T01:54:51Z</time>
      </trkpt>
      <trkpt lat="48.64708" lon="-0.5335">
        <ele>195.9</ele>
        <time>1989-12-31T01:55:02Z</time>
      </trkpt>
      <trkpt lat="48.64762" lon="-0.53237">
        <ele>198.3</ele>
        <time>1989-12-31T01:55:21Z</time>
      </trkpt>
      <trkpt lat="48.64819" lon="-0.53209">
        <ele>197.7</ele>
        <time>1989-12-31T01:55:34Z</time>
      </trkpt>
      <trkpt lat="48.64921" lon="-0.53034">
        <ele>204.1</ele>
        <time>1989-12-31T01:56:06Z</time>
      </trkpt>
    </trkseg>
  </trk>
</gpx>